Terminal Aerodrome Forecast
Issued by NWS Newport/Morehead City, NC

Current Version | Previous Version | Text Only | Print | Product List | Glossary Off
Versions: 1 2 3 4 5 6 7 8 9 10 11 12 13 14 15 16 17 18 19 20 21 22

000
FTUS42 KMHX 252300 RRA
TAFEWN
TAF
KEWN 252358Z 2600/2624 VRB04KT 5SM -RA BR OVC015
      TEMPO 2603/2606 -RA BR OVC009
     FM260600 04005KT 3SM -RA BR OVC009
     FM261700 33012G17KT 5SM -RA BR OVC015
     FM262100 30010G16KT P6SM VCSH BKN015 BKN050=

USA.gov is the U.S. government's official web portal to all federal, state and local government web resources and services.